sensor_id;sensor_type;location;lat;lon;timestamp;temperature;humidity
29803;DHT22;16702;50.898;4.662;2023-08-31T00:00:35;16.10;99.90
29803;DHT22;16702;50.898;4.662;2023-08-31T00:03:08;16.10;99.90
29803;DHT22;16702;50.898;4.662;2023-08-31T00:05:41;16.10;99.90
29803;DHT22;16702;50.898;4.662;2023-08-31T00:08:12;16.10;99.90
29803;DHT22;16702;50.898;4.662;2023-08-31T00:10:42;16.10;99.90
29803;DHT22;16702;50.898;4.662;2023-08-31T00:13:13;16.10;99.90
29803;DHT22;16702;50.898;4.662;2023-08-31T00:15:43;16.10;99.90
29803;DHT22;16702;50.898;4.662;2023-08-31T00:18:19;16.00;99.90
29803;DHT22;16702;50.898;4.662;2023-08-31T00:20:49;16.10;99.90
29803;DHT22;16702;50.898;4.662;2023-08-31T00:23:20;16.00;99.90
29803;DHT22;16702;50.898;4.662;2023-08-31T00:25:52;15.90;99.90
29803;DHT22;16702;50.898;4.662;2023-08-31T00:28:24;15.90;99.90
29803;DHT22;16702;50.898;4.662;2023-08-31T00:30:55;15.90;99.90
29803;DHT22;16702;50.898;4.662;2023-08-31T00:33:28;16.00;99.90
29803;DHT22;16702;50.898;4.662;2023-08-31T00:36:01;15.90;99.90
29803;DHT22;16702;50.898;4.662;2023-08-31T00:38:32;16.00;99.90
29803;DHT22;16702;50.898;4.662;2023-08-31T00:41:03;15.90;99.90
29803;DHT22;16702;50.898;4.662;2023-08-31T00:43:34;16.00;99.90
29803;DHT22;16702;50.898;4.662;2023-08-31T00:46:05;15.90;99.90
29803;DHT22;16702;50.898;4.662;2023-08-31T00:48:39;15.90;99.90
29803;DHT22;16702;50.898;4.662;2023-08-31T00:51:10;15.90;99.90
29803;DHT22;16702;50.898;4.662;2023-08-31T00:53:41;15.90;99.90
29803;DHT22;16702;50.898;4.662;2023-08-31T00:56:12;15.90;99.90
29803;DHT22;16702;50.898;4.662;2023-08-31T00:58:43;15.90;99.90
29803;DHT22;16702;50.898;4.662;2023-08-31T01:04:10;15.90;99.90
29803;DHT22;16702;50.898;4.662;2023-08-31T01:06:53;15.80;99.90
29803;DHT22;16702;50.898;4.662;2023-08-31T01:09:31;15.90;99.90
29803;DHT22;16702;50.898;4.662;2023-08-31T01:12:06;15.90;99.90
29803;DHT22;16702;50.898;4.662;2023-08-31T01:14:43;15.90;99.90
29803;DHT22;16702;50.898;4.662;2023-08-31T01:17:15;15.90;99.90
29803;DHT22;16702;50.898;4.662;2023-08-31T01:19:50;15.90;99.90
29803;DHT22;16702;50.898;4.662;2023-08-31T01:22:27;15.80;99.90
29803;DHT22;16702;50.898;4.662;2023-08-31T01:25:02;15.80;99.90
29803;DHT22;16702;50.898;4.662;2023-08-31T01:27:37;15.80;99.90
29803;DHT22;16702;50.898;4.662;2023-08-31T01:30:09;15.80;99.90
29803;DHT22;16702;50.898;4.662;2023-08-31T01:32:43;15.80;99.90
29803;DHT22;16702;50.898;4.662;2023-08-31T01:35:17;15.80;99.90
29803;DHT22;16702;50.898;4.662;2023-08-31T01:37:51;15.80;99.90
29803;DHT22;16702;50.898;4.662;2023-08-31T01:40:29;15.80;99.90
29803;DHT22;16702;50.898;4.662;2023-08-31T01:43:02;15.70;99.90
29803;DHT22;16702;50.898;4.662;2023-08-31T01:45:34;15.70;99.90
29803;DHT22;16702;50.898;4.662;2023-08-31T01:48:06;15.70;99.90
29803;DHT22;16702;50.898;4.662;2023-08-31T01:50:36;15.70;99.90
29803;DHT22;16702;50.898;4.662;2023-08-31T01:53:07;15.70;99.90
29803;DHT22;16702;50.898;4.662;2023-08-31T01:55:40;15.70;99.90
29803;DHT22;16702;50.898;4.662;2023-08-31T01:58:14;15.70;99.90
29803;DHT22;16702;50.898;4.662;2023-08-31T02:00:45;15.70;99.90
29803;DHT22;16702;50.898;4.662;2023-08-31T02:03:15;15.60;99.90
29803;DHT22;16702;50.898;4.662;2023-08-31T02:05:46;15.60;99.90
29803;DHT22;16702;50.898;4.662;2023-08-31T02:08:17;15.70;99.90
29803;DHT22;16702;50.898;4.662;2023-08-31T02:10:50;15.70;99.90
29803;DHT22;16702;50.898;4.662;2023-08-31T02:13:22;15.70;99.90
29803;DHT22;16702;50.898;4.662;2023-08-31T02:15:54;15.70;99.90
29803;DHT22;16702;50.898;4.662;2023-08-31T02:18:21;15.60;99.90
29803;DHT22;16702;50.898;4.662;2023-08-31T02:20:52;15.60;99.90
29803;DHT22;16702;50.898;4.662;2023-08-31T02:23:23;15.60;99.90
29803;DHT22;16702;50.898;4.662;2023-08-31T02:25:56;15.60;99.90
29803;DHT22;16702;50.898;4.662;2023-08-31T02:28:27;15.60;99.90
29803;DHT22;16702;50.898;4.662;2023-08-31T02:30:58;15.60;99.90
29803;DHT22;16702;50.898;4.662;2023-08-31T02:33:30;15.50;99.90
29803;DHT22;16702;50.898;4.662;2023-08-31T02:36:01;15.50;99.90
29803;DHT22;16702;50.898;4.662;2023-08-31T02:38:31;15.50;99.90
29803;DHT22;16702;50.898;4.662;2023-08-31T02:41:05;15.50;99.90
29803;DHT22;16702;50.898;4.662;2023-08-31T02:43:36;15.50;99.90
29803;DHT22;16702;50.898;4.662;2023-08-31T02:46:07;15.50;99.90
29803;DHT22;16702;50.898;4.662;2023-08-31T02:48:38;15.50;99.90
29803;DHT22;16702;50.898;4.662;2023-08-31T02:51:09;15.50;99.90
29803;DHT22;16702;50.898;4.662;2023-08-31T02:53:39;15.50;99.90
29803;DHT22;16702;50.898;4.662;2023-08-31T02:56:12;15.50;99.90
29803;DHT22;16702;50.898;4.662;2023-08-31T02:58:43;15.50;99.90
29803;DHT22;16702;50.898;4.662;2023-08-31T03:01:14;15.50;99.90
29803;DHT22;16702;50.898;4.662;2023-08-31T03:03:47;15.50;99.90
29803;DHT22;16702;50.898;4.662;2023-08-31T03:06:19;15.50;99.90
29803;DHT22;16702;50.898;4.662;2023-08-31T03:08:50;15.50;99.90
29803;DHT22;16702;50.898;4.662;2023-08-31T03:11:23;15.50;99.90
29803;DHT22;16702;50.898;4.662;2023-08-31T03:13:53;15.50;99.90
29803;DHT22;16702;50.898;4.662;2023-08-31T03:16:24;15.50;99.90
29803;DHT22;16702;50.898;4.662;2023-08-31T03:18:54;15.50;99.90
29803;DHT22;16702;50.898;4.662;2023-08-31T03:21:25;15.50;99.90
29803;DHT22;16702;50.898;4.662;2023-08-31T03:23:56;15.50;99.90
29803;DHT22;16702;50.898;4.662;2023-08-31T03:26:29;15.50;99.90
29803;DHT22;16702;50.898;4.662;2023-08-31T03:28:59;15.40;99.90
29803;DHT22;16702;50.898;4.662;2023-08-31T03:31:30;15.50;99.90
29803;DHT22;16702;50.898;4.662;2023-08-31T03:34:01;15.50;99.90
29803;DHT22;16702;50.898;4.662;2023-08-31T03:36:31;15.50;99.90
29803;DHT22;16702;50.898;4.662;2023-08-31T03:39:02;15.40;99.90
29803;DHT22;16702;50.898;4.662;2023-08-31T03:41:36;15.50;99.90
29803;DHT22;16702;50.898;4.662;2023-08-31T03:44:08;15.50;99.90
29803;DHT22;16702;50.898;4.662;2023-08-31T03:46:38;15.50;99.90
29803;DHT22;16702;50.898;4.662;2023-08-31T03:49:09;15.50;99.90
29803;DHT22;16702;50.898;4.662;2023-08-31T03:51:40;15.50;99.90
29803;DHT22;16702;50.898;4.662;2023-08-31T03:54:11;15.40;99.90
29803;DHT22;16702;50.898;4.662;2023-08-31T03:56:45;15.50;99.90
29803;DHT22;16702;50.898;4.662;2023-08-31T03:59:16;15.40;99.90
29803;DHT22;16702;50.898;4.662;2023-08-31T04:01:47;15.40;99.90
29803;DHT22;16702;50.898;4.662;2023-08-31T04:04:19;15.40;99.90
29803;DHT22;16702;50.898;4.662;2023-08-31T04:06:49;15.40;99.90
29803;DHT22;16702;50.898;4.662;2023-08-31T04:09:20;15.40;99.90
29803;DHT22;16702;50.898;4.662;2023-08-31T04:11:56;15.40;99.90
29803;DHT22;16702;50.898;4.662;2023-08-31T04:14:30;15.40;99.90
29803;DHT22;16702;50.898;4.662;2023-08-31T04:17:01;15.50;99.90
29803;DHT22;16702;50.898;4.662;2023-08-31T04:19:32;15.40;99.90
29803;DHT22;16702;50.898;4.662;2023-08-31T04:22:04;15.40;99.90
29803;DHT22;16702;50.898;4.662;2023-08-31T04:24:34;15.30;99.90
29803;DHT22;16702;50.898;4.662;2023-08-31T04:27:08;15.40;99.90
29803;DHT22;16702;50.898;4.662;2023-08-31T04:29:38;15.30;99.90
29803;DHT22;16702;50.898;4.662;2023-08-31T04:32:09;15.40;99.90
29803;DHT22;16702;50.898;4.662;2023-08-31T04:34:39;15.40;99.90
29803;DHT22;16702;50.898;4.662;2023-08-31T04:37:10;15.40;99.90
29803;DHT22;16702;50.898;4.662;2023-08-31T04:39:40;15.30;99.90
29803;DHT22;16702;50.898;4.662;2023-08-31T04:42:14;15.30;99.90
29803;DHT22;16702;50.898;4.662;2023-08-31T04:44:44;15.30;99.90
29803;DHT22;16702;50.898;4.662;2023-08-31T04:47:15;15.30;99.90
29803;DHT22;16702;50.898;4.662;2023-08-31T04:49:45;15.30;99.90
29803;DHT22;16702;50.898;4.662;2023-08-31T04:52:16;15.30;99.90
29803;DHT22;16702;50.898;4.662;2023-08-31T04:54:46;15.20;99.90
29803;DHT22;16702;50.898;4.662;2023-08-31T04:57:20;15.20;99.90
29803;DHT22;16702;50.898;4.662;2023-08-31T04:59:51;15.20;99.90
29803;DHT22;16702;50.898;4.662;2023-08-31T05:02:21;15.20;99.90
29803;DHT22;16702;50.898;4.662;2023-08-31T05:04:52;15.20;99.90
29803;DHT22;16702;50.898;4.662;2023-08-31T05:07:23;15.20;99.90
29803;DHT22;16702;50.898;4.662;2023-08-31T05:09:53;15.10;99.90
29803;DHT22;16702;50.898;4.662;2023-08-31T05:12:26;15.10;99.90
29803;DHT22;16702;50.898;4.662;2023-08-31T05:14:57;15.10;99.90
29803;DHT22;16702;50.898;4.662;2023-08-31T05:17:28;15.10;99.90
29803;DHT22;16702;50.898;4.662;2023-08-31T05:19:58;15.10;99.90
29803;DHT22;16702;50.898;4.662;2023-08-31T05:22:31;15.10;99.90
29803;DHT22;16702;50.898;4.662;2023-08-31T05:25:02;15.10;99.90
29803;DHT22;16702;50.898;4.662;2023-08-31T05:27:36;15.00;99.90
29803;DHT22;16702;50.898;4.662;2023-08-31T05:30:07;15.00;99.90
29803;DHT22;16702;50.898;4.662;2023-08-31T05:32:38;15.10;99.90
29803;DHT22;16702;50.898;4.662;2023-08-31T05:35:08;15.10;99.90
29803;DHT22;16702;50.898;4.662;2023-08-31T05:37:39;15.00;99.90
29803;DHT22;16702;50.898;4.662;2023-08-31T05:40:11;15.00;99.90
29803;DHT22;16702;50.898;4.662;2023-08-31T05:42:44;15.00;99.90
29803;DHT22;16702;50.898;4.662;2023-08-31T05:45:15;15.00;99.90
29803;DHT22;16702;50.898;4.662;2023-08-31T05:47:45;15.00;99.90
29803;DHT22;16702;50.898;4.662;2023-08-31T05:50:16;15.10;99.90
29803;DHT22;16702;50.898;4.662;2023-08-31T05:52:47;15.10;99.90
29803;DHT22;16702;50.898;4.662;2023-08-31T05:55:18;15.00;99.90
29803;DHT22;16702;50.898;4.662;2023-08-31T05:57:51;15.10;99.90
29803;DHT22;16702;50.898;4.662;2023-08-31T06:00:22;15.10;99.90
29803;DHT22;16702;50.898;4.662;2023-08-31T06:02:53;15.10;99.90
29803;DHT22;16702;50.898;4.662;2023-08-31T06:05:23;15.10;99.90
29803;DHT22;16702;50.898;4.662;2023-08-31T06:07:57;15.10;99.90
29803;DHT22;16702;50.898;4.662;2023-08-31T06:10:28;15.20;99.90
29803;DHT22;16702;50.898;4.662;2023-08-31T06:13:01;15.20;99.90
29803;DHT22;16702;50.898;4.662;2023-08-31T06:15:32;15.10;99.90
29803;DHT22;16702;50.898;4.662;2023-08-31T06:18:02;15.20;99.90
29803;DHT22;16702;50.898;4.662;2023-08-31T06:20:33;15.20;99.90
29803;DHT22;16702;50.898;4.662;2023-08-31T06:23:04;15.20;99.90
29803;DHT22;16702;50.898;4.662;2023-08-31T06:25:34;15.30;99.90
29803;DHT22;16702;50.898;4.662;2023-08-31T06:28:08;15.30;99.90
29803;DHT22;16702;50.898;4.662;2023-08-31T06:30:39;15.30;99.90
29803;DHT22;16702;50.898;4.662;2023-08-31T06:33:14;15.30;99.90
29803;DHT22;16702;50.898;4.662;2023-08-31T06:35:46;15.30;99.90
29803;DHT22;16702;50.898;4.662;2023-08-31T06:38:19;15.40;99.90
29803;DHT22;16702;50.898;4.662;2023-08-31T06:40:50;15.40;99.90
29803;DHT22;16702;50.898;4.662;2023-08-31T06:43:28;15.40;99.90
29803;DHT22;16702;50.898;4.662;2023-08-31T06:45:59;15.40;99.90
29803;DHT22;16702;50.898;4.662;2023-08-31T06:48:48;15.40;99.90
29803;DHT22;16702;50.898;4.662;2023-08-31T06:51:20;15.50;99.90
29803;DHT22;16702;50.898;4.662;2023-08-31T06:53:51;15.50;99.90
29803;DHT22;16702;50.898;4.662;2023-08-31T06:56:22;15.60;99.90
29803;DHT22;16702;50.898;4.662;2023-08-31T06:58:55;15.70;99.90
29803;DHT22;16702;50.898;4.662;2023-08-31T07:01:26;15.70;99.90
29803;DHT22;16702;50.898;4.662;2023-08-31T07:03:57;15.70;99.90
29803;DHT22;16702;50.898;4.662;2023-08-31T07:06:27;15.80;99.90
29803;DHT22;16702;50.898;4.662;2023-08-31T07:08:58;15.80;99.90
29803;DHT22;16702;50.898;4.662;2023-08-31T07:11:28;15.80;99.90
29803;DHT22;16702;50.898;4.662;2023-08-31T07:14:02;15.80;99.90
29803;DHT22;16702;50.898;4.662;2023-08-31T07:16:32;15.80;99.90
29803;DHT22;16702;50.898;4.662;2023-08-31T07:19:03;15.90;99.90
29803;DHT22;16702;50.898;4.662;2023-08-31T07:21:34;15.90;99.90
29803;DHT22;16702;50.898;4.662;2023-08-31T07:24:05;16.00;99.90
29803;DHT22;16702;50.898;4.662;2023-08-31T07:26:35;16.10;99.90
29803;DHT22;16702;50.898;4.662;2023-08-31T07:29:08;16.10;99.90
29803;DHT22;16702;50.898;4.662;2023-08-31T07:31:39;16.10;99.90
29803;DHT22;16702;50.898;4.662;2023-08-31T07:34:10;16.10;99.90
29803;DHT22;16702;50.898;4.662;2023-08-31T07:36:40;16.20;99.90
29803;DHT22;16702;50.898;4.662;2023-08-31T07:39:11;16.20;99.90
29803;DHT22;16702;50.898;4.662;2023-08-31T07:41:42;16.20;99.90
29803;DHT22;16702;50.898;4.662;2023-08-31T07:44:15;16.30;99.90
29803;DHT22;16702;50.898;4.662;2023-08-31T07:46:46;16.30;99.90
29803;DHT22;16702;50.898;4.662;2023-08-31T07:49:17;16.30;99.90
29803;DHT22;16702;50.898;4.662;2023-08-31T07:51:47;16.30;99.90
29803;DHT22;16702;50.898;4.662;2023-08-31T07:54:21;16.40;99.90
29803;DHT22;16702;50.898;4.662;2023-08-31T07:56:52;16.50;99.90
29803;DHT22;16702;50.898;4.662;2023-08-31T07:59:25;16.50;99.90
29803;DHT22;16702;50.898;4.662;2023-08-31T08:01:56;16.50;99.90
29803;DHT22;16702;50.898;4.662;2023-08-31T08:04:27;16.60;99.90
29803;DHT22;16702;50.898;4.662;2023-08-31T08:06:57;16.60;99.90
29803;DHT22;16702;50.898;4.662;2023-08-31T08:09:28;16.60;99.90
29803;DHT22;16702;50.898;4.662;2023-08-31T08:11:59;16.60;99.90
29803;DHT22;16702;50.898;4.662;2023-08-31T08:14:33;16.70;99.90
29803;DHT22;16702;50.898;4.662;2023-08-31T08:17:03;16.70;99.90
29803;DHT22;16702;50.898;4.662;2023-08-31T08:19:34;16.70;99.90
29803;DHT22;16702;50.898;4.662;2023-08-31T08:22:05;16.80;99.90
29803;DHT22;16702;50.898;4.662;2023-08-31T08:24:41;16.80;99.90
29803;DHT22;16702;50.898;4.662;2023-08-31T08:27:12;16.90;99.90
29803;DHT22;16702;50.898;4.662;2023-08-31T08:29:47;16.90;99.90
29803;DHT22;16702;50.898;4.662;2023-08-31T08:32:18;17.00;99.90
29803;DHT22;16702;50.898;4.662;2023-08-31T08:34:49;17.00;99.90
29803;DHT22;16702;50.898;4.662;2023-08-31T08:37:20;17.00;99.90
29803;DHT22;16702;50.898;4.662;2023-08-31T08:39:51;17.10;99.90
29803;DHT22;16702;50.898;4.662;2023-08-31T08:42:24;17.10;99.90
29803;DHT22;16702;50.898;4.662;2023-08-31T08:44:58;17.10;99.90
29803;DHT22;16702;50.898;4.662;2023-08-31T08:47:30;17.20;99.90
29803;DHT22;16702;50.898;4.662;2023-08-31T08:50:02;17.20;99.90
29803;DHT22;16702;50.898;4.662;2023-08-31T08:52:33;17.30;99.90
29803;DHT22;16702;50.898;4.662;2023-08-31T08:55:06;17.30;99.90
29803;DHT22;16702;50.898;4.662;2023-08-31T08:57:37;17.40;99.90
29803;DHT22;16702;50.898;4.662;2023-08-31T09:00:11;17.40;99.90
29803;DHT22;16702;50.898;4.662;2023-08-31T09:02:43;17.40;99.90
29803;DHT22;16702;50.898;4.662;2023-08-31T09:05:14;17.50;99.90
29803;DHT22;16702;50.898;4.662;2023-08-31T09:08:05;17.60;99.90
29803;DHT22;16702;50.898;4.662;2023-08-31T09:10:39;17.60;99.90
29803;DHT22;16702;50.898;4.662;2023-08-31T09:13:11;17.60;99.90
29803;DHT22;16702;50.898;4.662;2023-08-31T09:15:47;17.70;99.90
29803;DHT22;16702;50.898;4.662;2023-08-31T09:18:23;17.80;99.90
29803;DHT22;16702;50.898;4.662;2023-08-31T09:20:55;17.80;99.90
29803;DHT22;16702;50.898;4.662;2023-08-31T09:23:27;17.80;99.90
29803;DHT22;16702;50.898;4.662;2023-08-31T09:25:58;17.90;99.90
29803;DHT22;16702;50.898;4.662;2023-08-31T09:28:28;17.90;99.90
29803;DHT22;16702;50.898;4.662;2023-08-31T09:31:07;18.00;99.90
29803;DHT22;16702;50.898;4.662;2023-08-31T09:33:38;18.00;99.90
29803;DHT22;16702;50.898;4.662;2023-08-31T09:36:20;18.00;99.90
29803;DHT22;16702;50.898;4.662;2023-08-31T09:38:51;18.10;99.90
29803;DHT22;16702;50.898;4.662;2023-08-31T09:41:22;18.00;99.90
29803;DHT22;16702;50.898;4.662;2023-08-31T09:43:52;18.00;99.90
29803;DHT22;16702;50.898;4.662;2023-08-31T09:46:26;18.10;99.90
29803;DHT22;16702;50.898;4.662;2023-08-31T09:48:57;18.10;99.90
29803;DHT22;16702;50.898;4.662;2023-08-31T09:51:28;18.20;99.90
29803;DHT22;16702;50.898;4.662;2023-08-31T09:54:00;18.40;99.90
29803;DHT22;16702;50.898;4.662;2023-08-31T09:56:33;18.40;99.90
29803;DHT22;16702;50.898;4.662;2023-08-31T09:59:05;18.40;99.90
29803;DHT22;16702;50.898;4.662;2023-08-31T10:01:38;18.40;99.90
29803;DHT22;16702;50.898;4.662;2023-08-31T10:04:09;18.40;99.90
29803;DHT22;16702;50.898;4.662;2023-08-31T10:06:41;18.50;99.90
29803;DHT22;16702;50.898;4.662;2023-08-31T10:09:13;18.60;99.90
29803;DHT22;16702;50.898;4.662;2023-08-31T10:11:44;18.50;99.90
29803;DHT22;16702;50.898;4.662;2023-08-31T10:14:15;18.50;99.90
29803;DHT22;16702;50.898;4.662;2023-08-31T10:16:50;18.50;99.90
29803;DHT22;16702;50.898;4.662;2023-08-31T10:19:23;18.60;99.90
29803;DHT22;16702;50.898;4.662;2023-08-31T10:21:53;18.80;99.90
29803;DHT22;16702;50.898;4.662;2023-08-31T10:27:28;19.00;99.90
29803;DHT22;16702;50.898;4.662;2023-08-31T10:30:13;19.10;99.90
29803;DHT22;16702;50.898;4.662;2023-08-31T10:32:46;19.10;99.90
29803;DHT22;16702;50.898;4.662;2023-08-31T10:35:41;19.10;99.90
29803;DHT22;16702;50.898;4.662;2023-08-31T10:38:15;19.10;99.90
29803;DHT22;16702;50.898;4.662;2023-08-31T10:41:17;19.00;99.90
29803;DHT22;16702;50.898;4.662;2023-08-31T10:43:50;19.00;99.90
29803;DHT22;16702;50.898;4.662;2023-08-31T10:46:29;19.20;99.90
29803;DHT22;16702;50.898;4.662;2023-08-31T10:49:14;19.20;99.90
29803;DHT22;16702;50.898;4.662;2023-08-31T10:51:46;19.70;99.90
29803;DHT22;16702;50.898;4.662;2023-08-31T10:54:21;19.90;99.90
29803;DHT22;16702;50.898;4.662;2023-08-31T10:57:05;20.00;99.90
29803;DHT22;16702;50.898;4.662;2023-08-31T10:59:45;20.00;99.90
29803;DHT22;16702;50.898;4.662;2023-08-31T11:02:36;20.20;99.90
29803;DHT22;16702;50.898;4.662;2023-08-31T11:05:11;20.30;99.90
29803;DHT22;16702;50.898;4.662;2023-08-31T11:07:43;20.00;99.90
29803;DHT22;16702;50.898;4.662;2023-08-31T11:10:16;20.00;99.90
29803;DHT22;16702;50.898;4.662;2023-08-31T11:12:48;20.00;99.90
29803;DHT22;16702;50.898;4.662;2023-08-31T11:15:21;19.80;99.90
29803;DHT22;16702;50.898;4.662;2023-08-31T11:17:54;19.70;99.90
29803;DHT22;16702;50.898;4.662;2023-08-31T11:20:31;19.60;99.90
29803;DHT22;16702;50.898;4.662;2023-08-31T11:23:01;19.70;99.90
29803;DHT22;16702;50.898;4.662;2023-08-31T11:25:32;20.00;99.90
29803;DHT22;16702;50.898;4.662;2023-08-31T11:28:05;20.00;99.90
29803;DHT22;16702;50.898;4.662;2023-08-31T11:30:36;19.90;99.90
29803;DHT22;16702;50.898;4.662;2023-08-31T11:33:08;19.80;99.90
29803;DHT22;16702;50.898;4.662;2023-08-31T11:35:44;19.80;99.90
29803;DHT22;16702;50.898;4.662;2023-08-31T11:38:14;19.80;99.90
29803;DHT22;16702;50.898;4.662;2023-08-31T11:40:46;19.90;99.90
29803;DHT22;16702;50.898;4.662;2023-08-31T11:43:20;20.20;99.90
29803;DHT22;16702;50.898;4.662;2023-08-31T11:45:51;20.00;99.90
29803;DHT22;16702;50.898;4.662;2023-08-31T11:48:22;20.40;99.90
29803;DHT22;16702;50.898;4.662;2023-08-31T11:50:55;20.30;99.90
29803;DHT22;16702;50.898;4.662;2023-08-31T11:53:27;20.10;99.90
29803;DHT22;16702;50.898;4.662;2023-08-31T11:55:57;20.00;99.90
29803;DHT22;16702;50.898;4.662;2023-08-31T11:58:32;20.00;99.90
29803;DHT22;16702;50.898;4.662;2023-08-31T12:01:02;20.00;99.90
29803;DHT22;16702;50.898;4.662;2023-08-31T12:03:43;20.30;99.90
29803;DHT22;16702;50.898;4.662;2023-08-31T12:06:20;20.60;99.90
29803;DHT22;16702;50.898;4.662;2023-08-31T12:08:50;20.80;99.90
29803;DHT22;16702;50.898;4.662;2023-08-31T12:11:21;21.00;99.90
29803;DHT22;16702;50.898;4.662;2023-08-31T12:13:52;21.10;99.90
29803;DHT22;16702;50.898;4.662;2023-08-31T12:16:22;21.00;99.90
29803;DHT22;16702;50.898;4.662;2023-08-31T12:18:58;21.10;99.90
29803;DHT22;16702;50.898;4.662;2023-08-31T12:21:32;20.80;99.90
29803;DHT22;16702;50.898;4.662;2023-08-31T12:24:04;20.80;99.90
29803;DHT22;16702;50.898;4.662;2023-08-31T12:26:34;20.60;99.90
29803;DHT22;16702;50.898;4.662;2023-08-31T12:29:05;20.50;99.90
29803;DHT22;16702;50.898;4.662;2023-08-31T12:31:36;20.30;99.90
29803;DHT22;16702;50.898;4.662;2023-08-31T12:34:07;20.20;99.90
29803;DHT22;16702;50.898;4.662;2023-08-31T12:36:40;20.10;99.90
29803;DHT22;16702;50.898;4.662;2023-08-31T12:39:11;20.10;99.90
29803;DHT22;16702;50.898;4.662;2023-08-31T12:41:42;20.00;99.90
29803;DHT22;16702;50.898;4.662;2023-08-31T12:44:12;20.00;99.90
29803;DHT22;16702;50.898;4.662;2023-08-31T12:46:43;20.00;99.90
29803;DHT22;16702;50.898;4.662;2023-08-31T12:49:13;19.90;99.90
29803;DHT22;16702;50.898;4.662;2023-08-31T12:51:47;19.90;99.90
29803;DHT22;16702;50.898;4.662;2023-08-31T12:54:18;19.90;99.90
29803;DHT22;16702;50.898;4.662;2023-08-31T12:56:49;20.00;99.90
29803;DHT22;16702;50.898;4.662;2023-08-31T12:59:19;20.00;99.90
29803;DHT22;16702;50.898;4.662;2023-08-31T13:01:50;20.00;99.90
29803;DHT22;16702;50.898;4.662;2023-08-31T13:04:21;20.10;99.90
29803;DHT22;16702;50.898;4.662;2023-08-31T13:06:54;20.20;99.90
29803;DHT22;16702;50.898;4.662;2023-08-31T13:09:25;20.20;99.90
29803;DHT22;16702;50.898;4.662;2023-08-31T13:11:56;20.30;99.90
29803;DHT22;16702;50.898;4.662;2023-08-31T13:14:26;20.30;99.90
29803;DHT22;16702;50.898;4.662;2023-08-31T13:16:57;20.20;99.90
29803;DHT22;16702;50.898;4.662;2023-08-31T13:19:28;20.20;99.90
29803;DHT22;16702;50.898;4.662;2023-08-31T13:22:01;20.20;99.90
29803;DHT22;16702;50.898;4.662;2023-08-31T13:24:32;20.40;99.90
29803;DHT22;16702;50.898;4.662;2023-08-31T13:27:03;20.50;99.90
29803;DHT22;16702;50.898;4.662;2023-08-31T13:29:33;20.60;99.90
29803;DHT22;16702;50.898;4.662;2023-08-31T13:32:05;20.70;99.90
29803;DHT22;16702;50.898;4.662;2023-08-31T13:34:36;20.60;99.90
29803;DHT22;16702;50.898;4.662;2023-08-31T13:37:10;20.70;99.90
29803;DHT22;16702;50.898;4.662;2023-08-31T13:39:41;20.70;99.90
29803;DHT22;16702;50.898;4.662;2023-08-31T13:42:11;20.80;99.90
29803;DHT22;16702;50.898;4.662;2023-08-31T13:44:42;20.90;99.90
29803;DHT22;16702;50.898;4.662;2023-08-31T13:47:13;21.10;99.90
29803;DHT22;16702;50.898;4.662;2023-08-31T13:49:44;21.20;99.90
29803;DHT22;16702;50.898;4.662;2023-08-31T13:52:17;21.20;99.90
29803;DHT22;16702;50.898;4.662;2023-08-31T13:54:48;21.20;99.90
29803;DHT22;16702;50.898;4.662;2023-08-31T13:57:20;21.10;99.90
29803;DHT22;16702;50.898;4.662;2023-08-31T13:59:51;21.10;99.90
29803;DHT22;16702;50.898;4.662;2023-08-31T14:02:21;21.00;99.90
29803;DHT22;16702;50.898;4.662;2023-08-31T14:04:53;21.10;99.90
29803;DHT22;16702;50.898;4.662;2023-08-31T14:07:27;21.10;99.90
29803;DHT22;16702;50.898;4.662;2023-08-31T14:09:57;21.10;99.90
29803;DHT22;16702;50.898;4.662;2023-08-31T14:12:28;21.10;99.90
29803;DHT22;16702;50.898;4.662;2023-08-31T14:14:59;21.10;99.90
29803;DHT22;16702;50.898;4.662;2023-08-31T14:17:32;21.10;99.90
29803;DHT22;16702;50.898;4.662;2023-08-31T14:20:03;21.20;99.90
29803;DHT22;16702;50.898;4.662;2023-08-31T14:22:39;21.30;99.90
29803;DHT22;16702;50.898;4.662;2023-08-31T14:25:12;21.30;99.90
29803;DHT22;16702;50.898;4.662;2023-08-31T14:27:43;21.30;99.90
29803;DHT22;16702;50.898;4.662;2023-08-31T14:30:14;21.40;99.90
29803;DHT22;16702;50.898;4.662;2023-08-31T14:32:44;21.30;99.90
29803;DHT22;16702;50.898;4.662;2023-08-31T14:35:15;21.30;99.90
29803;DHT22;16702;50.898;4.662;2023-08-31T14:37:48;21.40;99.90
29803;DHT22;16702;50.898;4.662;2023-08-31T14:40:19;21.60;99.90
29803;DHT22;16702;50.898;4.662;2023-08-31T14:42:50;21.70;99.90
29803;DHT22;16702;50.898;4.662;2023-08-31T14:45:24;21.70;99.90
29803;DHT22;16702;50.898;4.662;2023-08-31T14:47:54;21.50;99.90
29803;DHT22;16702;50.898;4.662;2023-08-31T14:50:25;21.30;99.90
29803;DHT22;16702;50.898;4.662;2023-08-31T14:52:58;21.30;99.90
29803;DHT22;16702;50.898;4.662;2023-08-31T14:55:29;21.30;99.90
29803;DHT22;16702;50.898;4.662;2023-08-31T14:58:00;21.20;99.90
29803;DHT22;16702;50.898;4.662;2023-08-31T15:00:32;21.10;99.90
29803;DHT22;16702;50.898;4.662;2023-08-31T15:03:04;21.10;99.90
29803;DHT22;16702;50.898;4.662;2023-08-31T15:05:35;21.10;99.90
29803;DHT22;16702;50.898;4.662;2023-08-31T15:08:08;21.10;99.90
29803;DHT22;16702;50.898;4.662;2023-08-31T15:10:39;21.20;99.90
29803;DHT22;16702;50.898;4.662;2023-08-31T15:13:10;21.10;99.90
29803;DHT22;16702;50.898;4.662;2023-08-31T15:15:44;21.00;99.90
29803;DHT22;16702;50.898;4.662;2023-08-31T15:18:14;21.10;99.90
29803;DHT22;16702;50.898;4.662;2023-08-31T15:20:45;21.10;99.90
29803;DHT22;16702;50.898;4.662;2023-08-31T15:23:20;21.00;99.90
29803;DHT22;16702;50.898;4.662;2023-08-31T15:25:50;20.90;99.90
29803;DHT22;16702;50.898;4.662;2023-08-31T15:28:21;20.90;99.90
29803;DHT22;16702;50.898;4.662;2023-08-31T15:30:51;21.00;99.90
29803;DHT22;16702;50.898;4.662;2023-08-31T15:33:22;20.90;99.90
29803;DHT22;16702;50.898;4.662;2023-08-31T15:36:03;20.90;99.90
29803;DHT22;16702;50.898;4.662;2023-08-31T15:38:37;20.90;99.90
29803;DHT22;16702;50.898;4.662;2023-08-31T15:41:08;20.90;99.90
29803;DHT22;16702;50.898;4.662;2023-08-31T15:43:39;20.90;99.90
29803;DHT22;16702;50.898;4.662;2023-08-31T15:46:10;20.90;99.90
29803;DHT22;16702;50.898;4.662;2023-08-31T15:48:40;20.80;99.90
29803;DHT22;16702;50.898;4.662;2023-08-31T15:51:11;20.80;99.90
29803;DHT22;16702;50.898;4.662;2023-08-31T15:53:44;20.70;99.90
29803;DHT22;16702;50.898;4.662;2023-08-31T15:56:15;20.70;99.90
29803;DHT22;16702;50.898;4.662;2023-08-31T15:58:45;20.70;99.90
29803;DHT22;16702;50.898;4.662;2023-08-31T16:01:16;20.70;99.90
29803;DHT22;16702;50.898;4.662;2023-08-31T16:03:46;20.60;99.90
29803;DHT22;16702;50.898;4.662;2023-08-31T16:06:17;20.70;99.90